Time;durP1;ratioP1;P1;durP2;ratioP2;P2;SDS_P1;SDS_P2;PMS_P1;PMS_P2;Temp;Humidity;BMP_temperature;BMP_pressure;BME280_temperature;BME280_humidity;BME280_pressure;Samples;Min_cycle;Max_cycle;Signal;HPM_P1;HPM_P2
2022/07/30 00:00:27;;;;;;;4.30;2.57;;;18.60;99.90;;;;;;5053146;28;20240;-60
2022/07/30 00:02:55;;;;;;;4.93;3.00;;;18.60;99.90;;;;;;5049401;28;20321;-60
2022/07/30 00:05:23;;;;;;;3.90;3.10;;;18.60;99.90;;;;;;5024335;28;20251;-60
2022/07/30 00:07:51;;;;;;;4.10;2.90;;;18.60;99.90;;;;;;5033885;28;20223;-60
2022/07/30 00:10:21;;;;;;;5.27;2.70;;;18.50;99.90;;;;;;5053199;28;20231;-60
2022/07/30 00:12:51;;;;;;;5.23;3.17;;;18.50;99.90;;;;;;5053379;28;20232;-60
2022/07/30 00:15:19;;;;;;;5.60;2.77;;;18.50;99.90;;;;;;5042170;28;20254;-60
2022/07/30 00:17:47;;;;;;;4.27;2.77;;;18.50;99.90;;;;;;5033199;28;20612;-60
2022/07/30 00:20:17;;;;;;;4.60;3.00;;;18.50;99.90;;;;;;5033212;28;20274;-60
2022/07/30 00:22:46;;;;;;;5.03;2.70;;;18.40;99.90;;;;;;5038753;28;20243;-60
2022/07/30 00:25:15;;;;;;;6.83;3.10;;;18.40;99.90;;;;;;5044909;28;20223;-59
2022/07/30 00:27:44;;;;;;;3.97;2.73;;;18.30;99.90;;;;;;5052837;28;20232;-59
2022/07/30 00:30:13;;;;;;;4.03;2.97;;;18.30;99.90;;;;;;5052428;28;20284;-59
2022/07/30 00:32:44;;;;;;;4.93;2.70;;;18.30;99.90;;;;;;5052709;28;20238;-60
2022/07/30 00:35:13;;;;;;;4.57;3.10;;;18.30;99.90;;;;;;5053138;28;20653;-60
2022/07/30 00:37:42;;;;;;;3.50;3.00;;;18.30;99.90;;;;;;5050753;28;20317;-60
2022/07/30 00:40:11;;;;;;;5.77;3.00;;;18.30;99.90;;;;;;5044952;28;20233;-60
2022/07/30 00:42:41;;;;;;;4.97;2.93;;;18.20;99.90;;;;;;5051212;28;20697;-60
2022/07/30 00:45:13;;;;;;;3.60;3.07;;;18.20;99.90;;;;;;5051530;28;20226;-60
2022/07/30 00:47:42;;;;;;;3.90;2.90;;;18.20;99.90;;;;;;5046517;28;20290;-60
2022/07/30 00:50:12;;;;;;;4.37;3.03;;;18.20;99.90;;;;;;5032629;28;20257;-59
2022/07/30 00:52:41;;;;;;;4.87;2.93;;;18.20;99.90;;;;;;5037991;28;20237;-58
2022/07/30 00:55:11;;;;;;;4.30;3.37;;;18.20;99.90;;;;;;5040888;28;20716;-60
2022/07/30 00:57:39;;;;;;;4.47;3.07;;;18.20;99.90;;;;;;5052418;28;20318;-60
2022/07/30 01:00:12;;;;;;;5.50;3.20;;;18.20;99.90;;;;;;5052005;28;20308;-60
2022/07/30 01:02:41;;;;;;;4.27;3.03;;;18.10;99.90;;;;;;5050682;28;20246;-60
2022/07/30 01:05:10;;;;;;;4.07;3.30;;;18.10;99.90;;;;;;5052568;28;20226;-60
2022/07/30 01:07:39;;;;;;;5.60;3.13;;;18.10;99.90;;;;;;5049235;28;20285;-60
2022/07/30 01:10:09;;;;;;;4.40;2.97;;;18.10;99.90;;;;;;5052334;28;20253;-60
2022/07/30 01:12:38;;;;;;;5.63;3.37;;;18.10;99.90;;;;;;5052415;28;20697;-60
2022/07/30 01:15:08;;;;;;;6.13;4.20;;;18.10;99.90;;;;;;5040571;28;20244;-60
2022/07/30 01:17:38;;;;;;;3.63;2.87;;;18.10;99.90;;;;;;5031150;28;20235;-60
2022/07/30 01:20:11;;;;;;;5.03;3.33;;;18.10;99.90;;;;;;5031334;28;20234;-60
2022/07/30 01:22:52;;;;;;;5.00;3.57;;;18.00;99.90;;;;;;5031005;28;20238;-60
2022/07/30 01:25:30;;;;;;;4.70;3.13;;;18.00;99.90;;;;;;5033903;28;20253;-60
2022/07/30 01:28:03;;;;;;;4.43;3.57;;;18.00;99.90;;;;;;5031145;28;20312;-60
2022/07/30 01:30:35;;;;;;;4.30;3.40;;;18.00;99.90;;;;;;5031817;28;20324;-59
2022/07/30 01:33:06;;;;;;;6.70;3.87;;;18.00;99.90;;;;;;5030883;28;20234;-60
2022/07/30 01:35:36;;;;;;;6.53;3.87;;;18.00;99.90;;;;;;5030805;28;20729;-60
2022/07/30 01:38:06;;;;;;;4.00;3.47;;;18.00;99.90;;;;;;5033758;28;20226;-60
2022/07/30 01:40:37;;;;;;;6.73;3.20;;;18.00;99.90;;;;;;5047373;28;20271;-60
2022/07/30 01:43:08;;;;;;;6.10;3.33;;;18.00;99.90;;;;;;5052146;28;20293;-60
2022/07/30 01:45:37;;;;;;;5.17;3.30;;;18.00;99.90;;;;;;5051978;28;20627;-60
2022/07/30 01:48:13;;;;;;;6.07;3.60;;;18.00;99.90;;;;;;5050844;28;20224;-60
2022/07/30 01:50:46;;;;;;;5.67;3.43;;;17.90;99.90;;;;;;5050604;28;20253;-60
2022/07/30 01:53:16;;;;;;;7.53;3.37;;;18.00;99.90;;;;;;5050612;28;20239;-60
2022/07/30 01:55:45;;;;;;;6.33;3.37;;;17.90;99.90;;;;;;5043766;28;20287;-60
2022/07/30 01:58:18;;;;;;;4.87;3.27;;;17.90;99.90;;;;;;5052100;28;20256;-60
2022/07/30 02:00:50;;;;;;;5.97;3.67;;;17.90;99.90;;;;;;5049227;28;20310;-60
2022/07/30 02:03:19;;;;;;;4.93;3.60;;;17.90;99.90;;;;;;5031849;28;20637;-60
2022/07/30 02:05:53;;;;;;;4.83;3.30;;;17.90;99.90;;;;;;5030581;28;20731;-60
2022/07/30 02:08:28;;;;;;;7.87;3.67;;;17.90;99.90;;;;;;5035689;28;20226;-60
2022/07/30 02:11:04;;;;;;;4.80;3.40;;;18.00;99.90;;;;;;5050338;28;20627;-59
2022/07/30 02:13:40;;;;;;;5.67;3.37;;;17.90;99.90;;;;;;5054977;28;20220;-59
2022/07/30 02:16:14;;;;;;;3.87;3.50;;;18.00;99.90;;;;;;5054192;28;20235;-60
2022/07/30 02:18:50;;;;;;;6.57;3.87;;;17.90;99.90;;;;;;5053995;28;20223;-60
2022/07/30 02:21:21;;;;;;;6.67;3.73;;;18.00;99.90;;;;;;5055718;28;20240;-60
2022/07/30 02:23:52;;;;;;;5.27;3.50;;;17.90;99.90;;;;;;5053096;28;20242;-60
2022/07/30 02:26:24;;;;;;;5.07;3.77;;;17.90;99.90;;;;;;5048654;28;20253;-60
2022/07/30 02:28:59;;;;;;;6.87;4.00;;;17.90;99.90;;;;;;5055214;28;20701;-60
2022/07/30 02:31:29;;;;;;;3.77;3.33;;;17.90;99.90;;;;;;5052724;28;20245;-60
2022/07/30 02:34:02;;;;;;;6.23;3.23;;;17.80;99.90;;;;;;5032636;28;20311;-60
2022/07/30 02:36:32;;;;;;;4.50;3.33;;;17.80;99.90;;;;;;5050246;28;20254;-60
2022/07/30 02:39:02;;;;;;;6.87;3.60;;;17.90;99.90;;;;;;5044092;28;20237;-60
2022/07/30 02:41:32;;;;;;;8.73;3.77;;;17.90;99.90;;;;;;5053776;28;20262;-59
2022/07/30 02:44:02;;;;;;;6.90;3.70;;;17.90;99.90;;;;;;5034331;28;20217;-59
2022/07/30 02:46:32;;;;;;;6.73;4.03;;;17.80;99.90;;;;;;5035945;28;20264;-59
2022/07/30 02:49:21;;;;;;;6.53;4.13;;;17.80;99.90;;;;;;5015677;28;20238;-59
2022/07/30 02:51:50;;;;;;;6.07;3.30;;;17.80;99.90;;;;;;5013852;28;20706;-60
2022/07/30 02:54:20;;;;;;;7.20;3.57;;;17.80;99.90;;;;;;5040725;28;20287;-60
2022/07/30 02:56:50;;;;;;;4.70;3.80;;;17.80;99.90;;;;;;5033240;28;20260;-60
2022/07/30 02:59:23;;;;;;;5.97;3.33;;;17.80;99.90;;;;;;5049904;28;20249;-59
2022/07/30 03:01:52;;;;;;;7.00;3.50;;;17.80;99.90;;;;;;5033021;28;20736;-60
2022/07/30 03:04:21;;;;;;;7.10;4.10;;;17.80;99.90;;;;;;5034666;28;20318;-60
2022/07/30 03:06:51;;;;;;;6.77;3.70;;;17.80;99.90;;;;;;5034836;28;20641;-60
2022/07/30 03:09:20;;;;;;;5.30;3.67;;;17.80;99.90;;;;;;5047951;28;20225;-60
2022/07/30 03:11:51;;;;;;;5.43;3.43;;;17.70;99.90;;;;;;5053026;28;20241;-60
2022/07/30 03:14:21;;;;;;;6.57;4.00;;;17.70;99.90;;;;;;5053122;28;20279;-60
2022/07/30 03:16:58;;;;;;;6.73;3.67;;;17.80;99.90;;;;;;5054355;28;20625;-60
2022/07/30 03:19:31;;;;;;;6.27;3.80;;;17.70;99.90;;;;;;5052832;28;20221;-59
2022/07/30 03:22:02;;;;;;;7.37;3.97;;;17.70;99.90;;;;;;5052907;28;20240;-59
2022/07/30 03:24:32;;;;;;;3.77;3.33;;;17.70;99.90;;;;;;5036751;28;20226;-60
2022/07/30 03:27:02;;;;;;;6.00;3.50;;;17.80;99.90;;;;;;5051701;28;20225;-60
2022/07/30 03:29:34;;;;;;;5.43;4.00;;;17.70;99.90;;;;;;5044759;28;20248;-60
2022/07/30 03:32:04;;;;;;;6.93;3.57;;;17.70;99.90;;;;;;5032480;28;20233;-60
2022/07/30 03:34:35;;;;;;;6.40;3.60;;;17.70;99.90;;;;;;5033951;28;20225;-60
2022/07/30 03:37:05;;;;;;;3.70;3.40;;;17.70;99.90;;;;;;5033800;28;20737;-60
2022/07/30 03:39:36;;;;;;;6.73;3.60;;;17.70;99.90;;;;;;5047507;28;20308;-60
2022/07/30 03:42:07;;;;;;;3.93;3.53;;;17.70;99.90;;;;;;5052446;28;20236;-60
2022/07/30 03:44:40;;;;;;;5.23;3.53;;;17.70;99.90;;;;;;5052380;28;20221;-60
2022/07/30 03:47:09;;;;;;;5.07;3.80;;;17.70;99.90;;;;;;5052532;28;20304;-60
2022/07/30 03:49:43;;;;;;;4.93;3.20;;;17.70;99.90;;;;;;5052268;28;20255;-60
2022/07/30 03:52:12;;;;;;;5.20;3.50;;;17.70;99.90;;;;;;5053611;28;20218;-60
2022/07/30 03:54:40;;;;;;;5.80;3.00;;;17.70;99.90;;;;;;5044868;28;20241;-60
2022/07/30 03:57:28;;;;;;;3.90;3.27;;;17.70;99.90;;;;;;5013669;28;20245;-58
2022/07/30 03:59:57;;;;;;;6.77;3.67;;;17.70;99.90;;;;;;5013976;28;20232;-60
2022/07/30 04:02:26;;;;;;;5.20;3.03;;;17.70;99.90;;;;;;5011980;28;20624;-59
2022/07/30 04:05:23;;;;;;;4.23;3.30;;;17.70;99.90;;;;;;5004776;28;20555;-59
2022/07/30 04:07:52;;;;;;;7.47;4.10;;;17.60;99.90;;;;;;5018193;28;20239;-59
2022/07/30 04:10:21;;;;;;;5.43;3.77;;;17.60;99.90;;;;;;5052033;28;20768;-59
2022/07/30 04:13:09;;;;;;;5.63;3.30;;;17.60;99.90;;;;;;5042209;28;20232;-59
2022/07/30 04:15:47;;;;;;;7.63;4.37;;;17.60;99.90;;;;;;5051826;28;20240;-60
2022/07/30 04:18:40;;;;;;;4.83;4.30;;;17.60;99.90;;;;;;5051771;28;20225;-59
2022/07/30 04:21:10;;;;;;;5.50;3.30;;;17.60;99.90;;;;;;5051914;28;20237;-59
2022/07/30 04:23:45;;;;;;;6.27;3.83;;;17.60;99.90;;;;;;5052755;28;20228;-59
2022/07/30 04:26:34;;;;;;;6.87;4.00;;;17.60;99.90;;;;;;5045355;28;20717;-59
2022/07/30 04:29:06;;;;;;;5.07;3.60;;;17.60;99.90;;;;;;5031808;28;20229;-59
2022/07/30 04:31:36;;;;;;;5.83;3.60;;;17.60;99.90;;;;;;5031157;28;20260;-59
2022/07/30 04:34:47;;;;;;;4.63;3.67;;;17.60;99.90;;;;;;4990640;28;20235;-59
2022/07/30 04:37:22;;;;;;;7.93;3.50;;;17.60;99.90;;;;;;5025983;28;20241;-59
2022/07/30 04:39:53;;;;;;;5.40;3.50;;;17.60;99.90;;;;;;5046285;28;20748;-60
2022/07/30 04:42:22;;;;;;;5.63;3.60;;;17.60;99.90;;;;;;5018578;28;20238;-59
2022/07/30 04:45:01;;;;;;;4.23;3.60;;;17.60;99.90;;;;;;5011882;28;20705;-60
2022/07/30 04:47:52;;;;;;;6.43;4.03;;;17.60;99.90;;;;;;5025624;28;20571;-59
2022/07/30 04:50:44;;;;;;;4.40;3.53;;;17.50;99.90;;;;;;5031259;28;20324;-60
2022/07/30 04:53:18;;;;;;;5.47;3.80;;;17.50;99.90;;;;;;5041293;28;20232;-59
2022/07/30 04:55:55;;;;;;;6.83;3.90;;;17.50;99.90;;;;;;5046103;28;20742;-59
2022/07/30 04:58:28;;;;;;;4.87;3.30;;;17.50;99.90;;;;;;5021628;28;20743;-58
2022/07/30 05:00:58;;;;;;;4.07;3.50;;;17.50;99.90;;;;;;5030696;28;20772;-60
2022/07/30 05:03:34;;;;;;;5.17;3.57;;;17.50;99.90;;;;;;5024363;28;20609;-59
2022/07/30 05:06:03;;;;;;;4.83;3.60;;;17.50;99.90;;;;;;5023315;28;20693;-58
2022/07/30 05:08:36;;;;;;;4.37;3.40;;;17.50;99.90;;;;;;5027424;28;20625;-59
2022/07/30 05:11:10;;;;;;;5.57;3.33;;;17.50;99.90;;;;;;5045859;28;20326;-59
2022/07/30 05:13:41;;;;;;;4.83;3.03;;;17.50;99.90;;;;;;5021551;28;20239;-59
2022/07/30 05:16:14;;;;;;;4.13;3.30;;;17.50;99.90;;;;;;5037514;28;20255;-59
2022/07/30 05:18:44;;;;;;;5.47;3.73;;;17.50;99.90;;;;;;5036146;28;20313;-58
2022/07/30 05:21:13;;;;;;;6.73;3.73;;;17.50;99.90;;;;;;5037683;28;20245;-59
2022/07/30 05:23:45;;;;;;;3.97;2.87;;;17.50;99.90;;;;;;5038756;28;20236;-60
2022/07/30 05:26:38;;;;;;;4.63;2.90;;;17.60;99.90;;;;;;5047276;28;20232;-59
2022/07/30 05:29:08;;;;;;;4.40;3.40;;;17.60;99.90;;;;;;5051140;28;20228;-59
2022/07/30 05:31:53;;;;;;;4.63;3.23;;;17.60;99.90;;;;;;5048578;28;20317;-59
2022/07/30 05:34:23;;;;;;;5.30;3.47;;;17.60;99.90;;;;;;5030812;28;20226;-59
2022/07/30 05:36:54;;;;;;;5.60;3.10;;;17.70;99.90;;;;;;5031023;28;20234;-60
2022/07/30 05:39:22;;;;;;;5.23;3.80;;;17.70;99.90;;;;;;5042716;28;20226;-58
2022/07/30 05:41:53;;;;;;;4.77;3.53;;;17.70;99.90;;;;;;5040353;28;20244;-59
2022/07/30 05:44:26;;;;;;;4.03;3.50;;;17.70;99.90;;;;;;5019162;28;20634;-59
2022/07/30 05:46:55;;;;;;;4.10;3.33;;;17.80;99.90;;;;;;5019257;28;20271;-59
2022/07/30 05:49:25;;;;;;;6.37;3.40;;;17.80;99.90;;;;;;5015083;28;20227;-59
2022/07/30 05:52:00;;;;;;;6.63;3.47;;;17.80;99.90;;;;;;5015009;28;20291;-59
2022/07/30 05:54:28;;;;;;;5.30;3.50;;;17.80;99.90;;;;;;5053616;28;20245;-59
2022/07/30 05:57:16;;;;;;;5.07;3.60;;;17.80;99.90;;;;;;5016154;28;20234;-59
2022/07/30 05:59:46;;;;;;;5.80;4.00;;;18.00;99.90;;;;;;5019297;28;20653;-59
2022/07/30 06:02:27;;;;;;;5.47;3.30;;;18.00;99.90;;;;;;5050473;28;20321;-58
2022/07/30 06:05:15;;;;;;;5.13;3.30;;;18.00;99.90;;;;;;5028269;28;20314;-60
2022/07/30 06:07:44;;;;;;;8.10;4.00;;;18.00;99.90;;;;;;5038302;28;20236;-59
2022/07/30 06:10:13;;;;;;;5.30;3.80;;;18.00;99.90;;;;;;5046257;28;20222;-60
2022/07/30 06:12:42;;;;;;;6.67;4.00;;;18.10;99.90;;;;;;5054500;28;20717;-60
2022/07/30 06:15:10;;;;;;;5.43;3.77;;;18.10;99.90;;;;;;5054422;28;20650;-60
2022/07/30 06:17:44;;;;;;;4.93;4.00;;;18.10;99.90;;;;;;5039089;28;20227;-60
2022/07/30 06:21:03;;;;;;;5.17;3.50;;;18.20;99.90;;;;;;5031856;28;20257;-59
2022/07/30 06:23:49;;;;;;;4.93;3.60;;;18.30;99.90;;;;;;5043744;28;20311;-59
2022/07/30 06:26:43;;;;;;;4.37;3.20;;;18.30;99.90;;;;;;5050451;28;20224;-60
2022/07/30 06:29:12;;;;;;;4.77;3.43;;;18.30;99.90;;;;;;5040167;28;20259;-59
2022/07/30 06:31:40;;;;;;;5.50;3.37;;;18.30;99.90;;;;;;5050118;28;20324;-59
2022/07/30 06:34:11;;;;;;;7.10;3.80;;;18.30;99.90;;;;;;5033630;28;20227;-60
2022/07/30 06:36:44;;;;;;;6.00;3.67;;;18.30;99.90;;;;;;5033927;28;20223;-58
2022/07/30 06:39:16;;;;;;;5.23;3.40;;;18.30;99.90;;;;;;5035053;28;20226;-59
2022/07/30 06:42:19;;;;;;;6.97;3.83;;;18.30;99.90;;;;;;5031753;28;20325;-59
2022/07/30 06:45:07;;;;;;;5.53;3.60;;;18.40;99.90;;;;;;5029449;28;20230;-61
2022/07/30 06:47:58;;;;;;;6.70;3.97;;;18.40;99.90;;;;;;5038537;28;20721;-59
2022/07/30 06:50:30;;;;;;;5.27;3.77;;;18.40;99.90;;;;;;5033752;28;20681;-59
2022/07/30 06:53:00;;;;;;;5.17;3.30;;;18.40;99.90;;;;;;5030668;28;20224;-59
2022/07/30 06:55:40;;;;;;;5.17;2.90;;;18.40;99.90;;;;;;5032887;28;20277;-60
2022/07/30 06:58:08;;;;;;;4.77;3.30;;;18.50;99.90;;;;;;5055260;28;20220;-59
2022/07/30 07:01:14;;;;;;;5.30;3.03;;;18.50;99.90;;;;;;4997611;28;20312;-60
2022/07/30 07:03:42;;;;;;;5.50;3.10;;;18.50;99.90;;;;;;5004361;28;20624;-60
2022/07/30 07:06:10;;;;;;;3.67;3.33;;;18.50;99.90;;;;;;5023171;28;20234;-59
2022/07/30 07:08:40;;;;;;;3.97;2.90;;;18.60;99.90;;;;;;5036455;28;20310;-59
2022/07/30 07:11:11;;;;;;;5.23;3.10;;;18.60;99.90;;;;;;5045341;28;20717;-60
2022/07/30 07:13:46;;;;;;;4.63;3.67;;;18.60;99.90;;;;;;5032760;28;20851;-60
2022/07/30 07:16:24;;;;;;;8.37;3.70;;;18.70;99.90;;;;;;5032842;28;20221;-61
2022/07/30 07:18:54;;;;;;;4.93;4.37;;;18.70;99.90;;;;;;5032478;28;20230;-59
2022/07/30 07:21:23;;;;;;;5.90;3.63;;;18.90;99.90;;;;;;5034172;28;20637;-59
2022/07/30 07:23:55;;;;;;;5.50;3.40;;;18.90;99.90;;;;;;5032745;28;20234;-59
2022/07/30 07:26:41;;;;;;;3.93;3.00;;;18.90;99.90;;;;;;5033833;28;20258;-59
2022/07/30 07:29:10;;;;;;;4.23;3.50;;;19.00;99.90;;;;;;5024821;28;20748;-59
2022/07/30 07:31:39;;;;;;;6.73;3.40;;;19.10;99.90;;;;;;5032042;28;20282;-59
2022/07/30 07:34:27;;;;;;;5.40;3.40;;;19.20;99.90;;;;;;5030412;28;20778;-59
2022/07/30 07:36:56;;;;;;;5.93;4.13;;;19.20;99.90;;;;;;5032533;28;20385;-60
2022/07/30 07:39:25;;;;;;;4.43;3.63;;;19.30;99.90;;;;;;5036045;28;20596;-59
2022/07/30 07:41:53;;;;;;;6.37;3.93;;;19.30;99.90;;;;;;5051974;28;20238;-59
2022/07/30 07:44:24;;;;;;;5.63;4.00;;;19.40;99.90;;;;;;5034675;28;20226;-60
2022/07/30 07:46:52;;;;;;;6.53;4.17;;;19.40;99.90;;;;;;5054628;28;20262;-60
2022/07/30 07:49:22;;;;;;;4.97;3.87;;;19.50;99.90;;;;;;5037978;28;20233;-60
2022/07/30 07:51:51;;;;;;;6.17;3.93;;;19.60;99.90;;;;;;5037807;28;20274;-59
2022/07/30 07:54:20;;;;;;;6.43;3.93;;;19.60;99.90;;;;;;5034855;28;20242;-60
2022/07/30 07:56:54;;;;;;;7.73;3.53;;;19.60;99.90;;;;;;5065205;28;20722;-61
2022/07/30 07:59:34;;;;;;;5.50;3.60;;;19.70;99.90;;;;;;5052021;28;20231;-61
2022/07/30 08:02:12;;;;;;;5.57;3.50;;;19.70;99.90;;;;;;5051978;28;20297;-61
2022/07/30 08:04:55;;;;;;;6.43;3.80;;;19.80;99.90;;;;;;5052293;28;20239;-61
2022/07/30 08:07:45;;;;;;;7.07;4.13;;;19.80;99.90;;;;;;5038670;28;20292;-61
2022/07/30 08:10:48;;;;;;;7.83;3.97;;;19.80;99.90;;;;;;5023552;28;20231;-62
2022/07/30 08:13:44;;;;;;;5.53;3.80;;;19.90;99.90;;;;;;5032634;28;20239;-62
2022/07/30 08:16:38;;;;;;;6.00;3.73;;;19.90;99.90;;;;;;5028968;28;20239;-62
2022/07/30 08:19:09;;;;;;;6.87;3.87;;;19.90;99.90;;;;;;5033531;28;20232;-62
2022/07/30 08:21:40;;;;;;;4.57;3.90;;;20.00;99.90;;;;;;5031085;28;20651;-62
2022/07/30 08:24:08;;;;;;;5.87;4.40;;;20.00;99.90;;;;;;5031671;28;20227;-62
2022/07/30 08:26:37;;;;;;;4.67;4.10;;;20.00;99.90;;;;;;5027023;28;20412;-62
2022/07/30 08:29:06;;;;;;;6.40;4.03;;;20.10;99.90;;;;;;5023957;28;20640;-61
2022/07/30 08:31:34;;;;;;;6.37;3.70;;;20.00;99.90;;;;;;5029879;28;20232;-62
2022/07/30 08:34:03;;;;;;;6.00;4.00;;;20.00;99.90;;;;;;5048864;28;20232;-62
2022/07/30 08:36:31;;;;;;;4.57;3.73;;;20.00;99.90;;;;;;5030651;28;20230;-61
2022/07/30 08:38:59;;;;;;;5.57;3.97;;;19.90;99.90;;;;;;5046492;28;20641;-61
2022/07/30 08:41:28;;;;;;;8.83;4.30;;;19.90;99.90;;;;;;5037322;28;20591;-61
2022/07/30 08:43:59;;;;;;;9.40;4.87;;;19.90;99.90;;;;;;5029394;28;20223;-61
2022/07/30 08:46:33;;;;;;;6.93;4.17;;;20.00;99.90;;;;;;5042850;28;20219;-64
2022/07/30 08:49:14;;;;;;;7.83;4.27;;;19.90;99.90;;;;;;5024224;28;20257;-64
2022/07/30 08:51:43;;;;;;;7.67;4.70;;;19.90;99.90;;;;;;5031295;28;20235;-64
2022/07/30 08:54:41;;;;;;;7.70;4.63;;;19.70;99.90;;;;;;5043292;28;20598;-64
2022/07/30 08:57:13;;;;;;;5.17;4.67;;;19.60;99.90;;;;;;5029307;28;20226;-64
2022/07/30 08:59:42;;;;;;;6.23;4.60;;;19.50;99.90;;;;;;5030755;28;20600;-64
2022/07/30 09:02:31;;;;;;;6.23;4.67;;;19.40;99.90;;;;;;5029682;28;20309;-64
2022/07/30 09:05:09;;;;;;;6.17;4.60;;;19.40;99.90;;;;;;5036700;28;20228;-64
2022/07/30 09:07:38;;;;;;;5.83;4.23;;;19.30;99.90;;;;;;5029681;28;20237;-64
2022/07/30 09:10:12;;;;;;;8.30;5.00;;;19.30;99.90;;;;;;5044729;28;20229;-65
2022/07/30 09:12:41;;;;;;;6.63;4.73;;;19.30;99.90;;;;;;5028069;28;20826;-65
2022/07/30 09:15:13;;;;;;;5.40;4.90;;;19.20;99.90;;;;;;5030831;28;20212;-59
2022/07/30 09:17:54;;;;;;;24.80;6.20;;;19.30;99.90;;;;;;5028779;28;20332;-58
2022/07/30 09:20:25;;;;;;;20.20;6.40;;;19.20;99.90;;;;;;5026863;28;20235;-57
2022/07/30 09:22:55;;;;;;;12.67;5.17;;;19.30;99.90;;;;;;5036546;28;20353;-58
2022/07/30 09:25:43;;;;;;;12.67;5.60;;;19.30;99.90;;;;;;5048190;28;20242;-58
2022/07/30 09:28:32;;;;;;;7.63;5.13;;;19.30;99.90;;;;;;5050249;28;20362;-58
2022/07/30 09:31:20;;;;;;;6.93;5.67;;;19.40;99.90;;;;;;5025912;28;20595;-58
2022/07/30 09:34:24;;;;;;;6.87;5.83;;;19.60;99.90;;;;;;5035428;28;20373;-58
2022/07/30 09:37:03;;;;;;;7.27;5.27;;;19.80;99.90;;;;;;5035542;28;20236;-59
2022/07/30 09:40:12;;;;;;;6.80;4.50;;;20.10;99.90;;;;;;5022109;28;20246;-58
2022/07/30 09:43:08;;;;;;;7.63;5.60;;;20.40;99.90;;;;;;5028299;28;20227;-58
2022/07/30 09:45:50;;;;;;;12.77;5.03;;;20.70;99.90;;;;;;5033512;28;20268;-58
2022/07/30 09:48:26;;;;;;;8.30;4.60;;;21.00;99.90;;;;;;5028183;28;20708;-58
2022/07/30 09:50:56;;;;;;;5.97;4.43;;;21.10;99.90;;;;;;5035559;28;20296;-59
2022/07/30 09:53:25;;;;;;;8.00;5.10;;;21.10;99.90;;;;;;5037190;28;20240;-58
2022/07/30 09:55:53;;;;;;;5.30;4.23;;;21.20;99.90;;;;;;5034805;28;20285;-59
2022/07/30 09:58:21;;;;;;;6.03;5.33;;;21.30;99.90;;;;;;5030435;28;20700;-59
2022/07/30 10:00:57;;;;;;;6.70;5.03;;;21.30;99.90;;;;;;5050235;28;20243;-59
2022/07/30 10:03:50;;;;;;;7.87;5.00;;;21.20;99.90;;;;;;5033098;28;20303;-59
2022/07/30 10:06:38;;;;;;;6.17;4.67;;;21.30;99.90;;;;;;5018210;28;20601;-58
2022/07/30 10:09:30;;;;;;;9.30;5.60;;;21.30;99.90;;;;;;5035939;28;20231;-58
2022/07/30 10:12:01;;;;;;;6.47;5.13;;;21.30;99.90;;;;;;5033436;28;20224;-59
2022/07/30 10:14:34;;;;;;;6.67;4.30;;;21.40;99.90;;;;;;5029748;28;20246;-59
2022/07/30 10:17:10;;;;;;;6.17;4.23;;;21.50;99.90;;;;;;5051277;28;20772;-59
2022/07/30 10:19:40;;;;;;;5.63;4.30;;;21.60;99.90;;;;;;5051003;28;20258;-59
2022/07/30 10:22:30;;;;;;;5.33;4.20;;;21.70;99.90;;;;;;5038519;28;20234;-59
2022/07/30 10:25:30;;;;;;;6.30;4.27;;;21.80;99.90;;;;;;5029784;28;20232;-59
2022/07/30 10:28:08;;;;;;;5.80;4.57;;;22.10;99.90;;;;;;5035422;28;20224;-59
2022/07/30 10:30:36;;;;;;;4.50;3.93;;;22.20;99.90;;;;;;5034116;28;20270;-59
2022/07/30 10:33:08;;;;;;;4.93;4.43;;;22.30;99.90;;;;;;5033483;28;20216;-60
2022/07/30 10:35:57;;;;;;;5.67;3.87;;;22.40;99.90;;;;;;5034778;28;20231;-60
2022/07/30 10:38:32;;;;;;;8.67;5.33;;;22.40;99.90;;;;;;5041062;28;20316;-59
2022/07/30 10:41:05;;;;;;;6.07;4.67;;;22.40;99.90;;;;;;5033877;28;20703;-60
2022/07/30 10:43:59;;;;;;;6.77;4.00;;;22.50;99.90;;;;;;5034757;28;20221;-59
2022/07/30 10:46:40;;;;;;;6.63;5.33;;;22.70;99.90;;;;;;5034039;28;20231;-59
2022/07/30 10:49:11;;;;;;;5.33;3.60;;;22.80;99.90;;;;;;5031535;28;20227;-59
2022/07/30 10:51:48;;;;;;;6.93;3.70;;;23.00;99.90;;;;;;5036039;28;20235;-59
2022/07/30 10:54:39;;;;;;;5.30;3.63;;;23.10;99.90;;;;;;5040090;28;20279;-58
2022/07/30 10:57:11;;;;;;;5.83;4.67;;;23.30;99.90;;;;;;5034664;28;20307;-59
2022/07/30 11:00:13;;;;;;;6.30;3.70;;;23.40;99.90;;;;;;5033666;28;20263;-58
2022/07/30 11:03:13;;;;;;;6.67;4.00;;;23.40;99.90;;;;;;5030582;28;20236;-59
2022/07/30 11:05:44;;;;;;;7.70;4.17;;;23.30;99.90;;;;;;5030911;28;20260;-59
2022/07/30 11:08:32;;;;;;;6.83;4.67;;;23.20;99.90;;;;;;5042397;28;20224;-59
2022/07/30 11:11:26;;;;;;;6.63;3.67;;;23.10;99.90;;;;;;5035322;28;20224;-59
2022/07/30 11:14:14;;;;;;;6.30;4.70;;;23.10;99.90;;;;;;5027356;28;20312;-59
2022/07/30 11:17:00;;;;;;;5.43;3.40;;;23.10;99.90;;;;;;5030324;28;20327;-59
2022/07/30 11:19:28;;;;;;;5.53;3.50;;;23.10;99.90;;;;;;5033292;28;20676;-58
2022/07/30 11:22:24;;;;;;;6.20;3.50;;;23.20;99.90;;;;;;5018132;28;20244;-59
2022/07/30 11:24:53;;;;;;;6.07;3.43;;;23.20;99.90;;;;;;5028966;28;20263;-59
2022/07/30 11:27:44;;;;;;;7.10;3.70;;;23.30;99.90;;;;;;5028525;28;20231;-59
2022/07/30 11:30:33;;;;;;;6.17;3.87;;;23.30;99.90;;;;;;5032562;28;20220;-59
2022/07/30 11:33:23;;;;;;;5.70;3.43;;;23.30;99.90;;;;;;5029413;28;20233;-60
2022/07/30 11:36:09;;;;;;;5.20;3.50;;;23.50;99.90;;;;;;5028134;28;20220;-60
2022/07/30 11:38:52;;;;;;;4.80;3.30;;;23.60;99.90;;;;;;5033768;28;20554;-60
2022/07/30 11:41:20;;;;;;;5.80;3.60;;;23.70;99.90;;;;;;5028166;28;20767;-60
2022/07/30 11:44:25;;;;;;;5.20;3.30;;;23.80;99.90;;;;;;5022836;28;20728;-60
2022/07/30 11:46:54;;;;;;;6.97;3.83;;;23.90;99.90;;;;;;5024900;28;20316;-59
2022/07/30 11:49:22;;;;;;;6.47;3.47;;;23.90;99.90;;;;;;5024720;28;20296;-59
2022/07/30 11:51:50;;;;;;;4.40;3.70;;;24.10;99.90;;;;;;5019257;28;20227;-60
2022/07/30 11:54:19;;;;;;;5.57;3.50;;;24.10;99.90;;;;;;5046173;28;20239;-60
2022/07/30 11:56:51;;;;;;;5.73;3.40;;;24.20;99.90;;;;;;5042057;28;20712;-60
2022/07/30 11:59:21;;;;;;;7.53;4.13;;;24.30;99.90;;;;;;5033799;28;20233;-60
2022/07/30 12:01:50;;;;;;;5.70;3.90;;;24.50;99.90;;;;;;5033083;28;20249;-60
2022/07/30 12:04:19;;;;;;;7.70;3.97;;;24.80;99.90;;;;;;5033644;28;20321;-61
2022/07/30 12:06:48;;;;;;;5.00;3.60;;;25.10;99.90;;;;;;5033428;28;20224;-61
2022/07/30 12:09:23;;;;;;;7.20;3.53;;;25.40;99.90;;;;;;5045552;28;20237;-61
2022/07/30 12:11:55;;;;;;;5.70;3.20;;;25.80;99.90;;;;;;5035030;28;20245;-61
2022/07/30 12:14:25;;;;;;;7.83;3.80;;;26.00;99.90;;;;;;5033233;28;20226;-61
2022/07/30 12:16:54;;;;;;;5.93;3.23;;;26.30;99.90;;;;;;5030536;28;20243;-61
2022/07/30 12:19:22;;;;;;;6.43;3.20;;;26.60;99.90;;;;;;5033297;28;20254;-61
2022/07/30 12:21:50;;;;;;;5.13;3.60;;;26.90;99.90;;;;;;5032574;28;20655;-61
2022/07/30 12:24:25;;;;;;;5.30;4.00;;;27.40;99.90;;;;;;5047448;28;20232;-61
2022/07/30 12:27:04;;;;;;;6.00;3.73;;;27.20;99.90;;;;;;5037813;28;20290;-61
2022/07/30 12:29:35;;;;;;;4.30;3.30;;;27.00;99.90;;;;;;5033066;28;20713;-61
2022/07/30 12:32:05;;;;;;;4.93;2.97;;;26.90;99.90;;;;;;5032828;28;20238;-60
2022/07/30 12:34:33;;;;;;;5.53;2.97;;;26.80;99.90;;;;;;5033276;28;20246;-61
2022/07/30 12:37:09;;;;;;;5.70;3.27;;;26.60;99.90;;;;;;5033335;28;20644;-61
2022/07/30 12:39:37;;;;;;;4.00;3.00;;;26.50;99.90;;;;;;5046188;28;20308;-61
2022/07/30 12:42:17;;;;;;;5.70;3.53;;;26.40;99.90;;;;;;5032891;28;20281;-60
2022/07/30 12:44:48;;;;;;;4.13;3.17;;;26.30;99.90;;;;;;5035279;28;20316;-61
2022/07/30 12:47:20;;;;;;;6.57;3.80;;;26.30;99.90;;;;;;5031688;28;20616;-60
2022/07/30 12:49:49;;;;;;;6.70;3.20;;;26.20;99.90;;;;;;5033010;28;20224;-61
2022/07/30 12:52:25;;;;;;;9.70;3.50;;;26.40;99.90;;;;;;5035512;28;20236;-60
2022/07/30 12:55:00;;;;;;;4.17;2.90;;;26.70;99.90;;;;;;5044006;28;20740;-61
2022/07/30 12:57:44;;;;;;;6.20;3.20;;;26.70;99.90;;;;;;5052312;28;20230;-60
2022/07/30 13:00:15;;;;;;;5.17;3.17;;;26.80;99.90;;;;;;5051998;28;20272;-60
2022/07/30 13:02:43;;;;;;;5.30;2.87;;;26.70;99.90;;;;;;5052625;28;20316;-60
2022/07/30 13:05:11;;;;;;;4.20;3.30;;;26.70;99.90;;;;;;5052790;28;20235;-61
2022/07/30 13:07:53;;;;;;;5.03;3.17;;;26.60;99.90;;;;;;5040609;28;20715;-61
2022/07/30 13:10:22;;;;;;;3.10;2.80;;;26.60;99.90;;;;;;5034662;28;20756;-61
2022/07/30 13:12:57;;;;;;;5.33;3.77;;;26.50;99.90;;;;;;5032925;28;20322;-60
2022/07/30 13:15:27;;;;;;;5.63;3.60;;;26.50;99.90;;;;;;5032717;28;20710;-61
2022/07/30 13:17:55;;;;;;;5.80;3.03;;;26.40;99.90;;;;;;5032532;28;20278;-61
2022/07/30 13:20:23;;;;;;;5.40;3.50;;;26.40;99.90;;;;;;5032652;28;20238;-60
2022/07/30 13:22:51;;;;;;;6.80;3.50;;;26.30;99.90;;;;;;5039194;28;20329;-60
2022/07/30 13:25:19;;;;;;;5.70;3.37;;;26.20;99.90;;;;;;5037038;28;20230;-60